<?xml version="1.0" encoding="UTF-8" standalone="no" ?>
<gpx xmlns="http://www.topografix.com/GPX/1/1" creator="MapSource 6.16.3" version="1.1" xmlns:xsi="http://www.w3.org/2001/XMLSchema-instance" xsi:schemaLocation="http://www.topografix.com/GPX/1/1 http://www.topografix.com/GPX/1/1/gpx.xsd">

  <metadata>
    <link href="http://www.garmin.com">
      <text>Garmin International</text>
    </link>
    <time>2016-09-17T08:12:10Z</time>
    <bounds maxlat="45.732393264770508" maxlon="7.322258949279785" minlat="45.690014362335205" minlon="7.310113906860352"/>
  </metadata>

  <trk>
    <name>ACTIVE LOG</name>
    <trkseg>
      <trkpt lat="45.690014362335205" lon="7.311465740203857">
        <ele>1769.92431640625</ele>
        <time>2007-06-24T11:20:51Z</time>
      </trkpt>
      <trkpt lat="45.690035820007324" lon="7.311465740203857">
        <ele>1768.963134765625</ele>
        <time>2007-06-24T11:21:21Z</time>
      </trkpt>
      <trkpt lat="45.690207481384277" lon="7.311422824859619">
        <ele>1763.1953125</ele>
        <time>2007-06-24T11:21:27Z</time>
      </trkpt>
      <trkpt lat="45.690271854400635" lon="7.311594486236572">
        <ele>1758.869384765625</ele>
        <time>2007-06-24T11:21:32Z</time>
      </trkpt>
      <trkpt lat="45.690293312072754" lon="7.311723232269287">
        <ele>1757.427490234375</ele>
        <time>2007-06-24T11:21:36Z</time>
      </trkpt>
      <trkpt lat="45.690357685089111" lon="7.311766147613525">
        <ele>1755.504638671875</ele>
        <time>2007-06-24T11:21:38Z</time>
      </trkpt>
      <trkpt lat="45.690314769744873" lon="7.311937808990479">
        <ele>1754.543212890625</ele>
        <time>2007-06-24T11:21:43Z</time>
      </trkpt>
      <trkpt lat="45.690336227416992" lon="7.312023639678955">
        <ele>1753.101318359375</ele>
        <time>2007-06-24T11:21:46Z</time>
      </trkpt>
      <trkpt lat="45.690336227416992" lon="7.312066555023193">
        <ele>1752.62060546875</ele>
        <time>2007-06-24T11:21:47Z</time>
      </trkpt>
      <trkpt lat="45.690336227416992" lon="7.312195301055908">
        <ele>1750.217529296875</ele>
        <time>2007-06-24T11:21:51Z</time>
      </trkpt>
      <trkpt lat="45.690271854400635" lon="7.312560081481934">
        <ele>1746.852783203125</ele>
        <time>2007-06-24T11:21:56Z</time>
      </trkpt>
      <trkpt lat="45.690357685089111" lon="7.312688827514648">
        <ele>1743.968994140625</ele>
        <time>2007-06-24T11:22:00Z</time>
      </trkpt>
      <trkpt lat="45.690443515777588" lon="7.312688827514648">
        <ele>1742.527099609375</ele>
        <time>2007-06-24T11:22:02Z</time>
      </trkpt>
      <trkpt lat="45.690550804138184" lon="7.312624454498291">
        <ele>1738.200927734375</ele>
        <time>2007-06-24T11:22:07Z</time>
      </trkpt>
      <trkpt lat="45.690615177154541" lon="7.3124098777771">
        <ele>1732.91357421875</ele>
        <time>2007-06-24T11:22:14Z</time>
      </trkpt>
      <trkpt lat="45.69063663482666" lon="7.312366962432861">
        <ele>1731.952392578125</ele>
        <time>2007-06-24T11:22:15Z</time>
      </trkpt>
      <trkpt lat="45.690808296203613" lon="7.312195301055908">
        <ele>1726.665283203125</ele>
        <time>2007-06-24T11:22:20Z</time>
      </trkpt>
      <trkpt lat="45.690851211547852" lon="7.312238216400147">
        <ele>1725.22314453125</ele>
        <time>2007-06-24T11:22:27Z</time>
      </trkpt>
      <trkpt lat="45.690937042236328" lon="7.312345504760742">
        <ele>1724.261962890625</ele>
        <time>2007-06-24T11:22:33Z</time>
      </trkpt>
      <trkpt lat="45.690958499908447" lon="7.312366962432861">
        <ele>1723.300537109375</ele>
        <time>2007-06-24T11:22:34Z</time>
      </trkpt>
      <trkpt lat="45.691087245941162" lon="7.312345504760742">
        <ele>1722.339111328125</ele>
        <time>2007-06-24T11:22:37Z</time>
      </trkpt>
      <trkpt lat="45.691452026367188" lon="7.312238216400147">
        <ele>1713.687255859375</ele>
        <time>2007-06-24T11:22:43Z</time>
      </trkpt>
      <trkpt lat="45.69188117980957" lon="7.312302589416504">
        <ele>1708.880859375</ele>
        <time>2007-06-24T11:22:50Z</time>
      </trkpt>
      <trkpt lat="45.692117214202881" lon="7.312345504760742">
        <ele>1706.477294921875</ele>
        <time>2007-06-24T11:22:54Z</time>
      </trkpt>
      <trkpt lat="45.692331790924072" lon="7.312495708465576">
        <ele>1705.51611328125</ele>
        <time>2007-06-24T11:23:00Z</time>
      </trkpt>
      <trkpt lat="45.692310333251953" lon="7.312560081481934">
        <ele>1705.035400390625</ele>
        <time>2007-06-24T11:23:02Z</time>
      </trkpt>
      <trkpt lat="45.692353248596191" lon="7.312560081481934">
        <ele>1704.07421875</ele>
        <time>2007-06-24T11:23:06Z</time>
      </trkpt>
      <trkpt lat="45.692374706268311" lon="7.312495708465576">
        <ele>1703.593505859375</ele>
        <time>2007-06-24T11:23:07Z</time>
      </trkpt>
      <trkpt lat="45.692417621612549" lon="7.312366962432861">
        <ele>1703.11279296875</ele>
        <time>2007-06-24T11:23:09Z</time>
      </trkpt>
      <trkpt lat="45.692439079284668" lon="7.312324047088623">
        <ele>1702.1513671875</ele>
        <time>2007-06-24T11:23:11Z</time>
      </trkpt>
      <trkpt lat="45.692439079284668" lon="7.312366962432861">
        <ele>1700.22900390625</ele>
        <time>2007-06-24T11:23:14Z</time>
      </trkpt>
      <trkpt lat="45.692417621612549" lon="7.312560081481934">
        <ele>1699.267578125</ele>
        <time>2007-06-24T11:23:17Z</time>
      </trkpt>
      <trkpt lat="45.692417621612549" lon="7.312624454498291">
        <ele>1698.786865234375</ele>
        <time>2007-06-24T11:23:18Z</time>
      </trkpt>
      <trkpt lat="45.692503452301025" lon="7.312667369842529">
        <ele>1696.8642578125</ele>
        <time>2007-06-24T11:23:22Z</time>
      </trkpt>
      <trkpt lat="45.692610740661621" lon="7.312624454498291">
        <ele>1695.903076171875</ele>
        <time>2007-06-24T11:23:25Z</time>
      </trkpt>
      <trkpt lat="45.692739486694336" lon="7.312581539154053">
        <ele>1693.98046875</ele>
        <time>2007-06-24T11:23:28Z</time>
      </trkpt>
      <trkpt lat="45.692868232727051" lon="7.312388420104981">
        <ele>1691.09619140625</ele>
        <time>2007-06-24T11:23:31Z</time>
      </trkpt>
      <trkpt lat="45.692996978759766" lon="7.312324047088623">
        <ele>1687.2509765625</ele>
        <time>2007-06-24T11:23:34Z</time>
      </trkpt>
      <trkpt lat="45.693061351776123" lon="7.312495708465576">
        <ele>1681.483154296875</ele>
        <time>2007-06-24T11:23:37Z</time>
      </trkpt>
      <trkpt lat="45.6931471824646" lon="7.312602996826172">
        <ele>1677.157470703125</ele>
        <time>2007-06-24T11:23:40Z</time>
      </trkpt>
      <trkpt lat="45.693168640136719" lon="7.31264591217041">
        <ele>1675.715087890625</ele>
        <time>2007-06-24T11:23:41Z</time>
      </trkpt>
      <trkpt lat="45.693275928497314" lon="7.313010692596436">
        <ele>1669.466796875</ele>
        <time>2007-06-24T11:23:46Z</time>
      </trkpt>
      <trkpt lat="45.693490505218506" lon="7.313332557678223">
        <ele>1665.62158203125</ele>
        <time>2007-06-24T11:23:50Z</time>
      </trkpt>
      <trkpt lat="45.693554878234863" lon="7.313525676727295">
        <ele>1663.21826171875</ele>
        <time>2007-06-24T11:23:53Z</time>
      </trkpt>
      <trkpt lat="45.693576335906982" lon="7.313568592071533">
        <ele>1659.372802734375</ele>
        <time>2007-06-24T11:24:00Z</time>
      </trkpt>
      <trkpt lat="45.69364070892334" lon="7.313761711120606">
        <ele>1655.527587890625</ele>
        <time>2007-06-24T11:24:07Z</time>
      </trkpt>
      <trkpt lat="45.69364070892334" lon="7.313868999481201">
        <ele>1634.859375</ele>
        <time>2007-06-24T11:25:42Z</time>
      </trkpt>
      <trkpt lat="45.693726539611816" lon="7.313868999481201">
        <ele>1647.3564453125</ele>
        <time>2007-06-24T11:26:58Z</time>
      </trkpt>
      <trkpt lat="45.693747997283936" lon="7.31391191482544">
        <ele>1647.837158203125</ele>
        <time>2007-06-24T11:27:01Z</time>
      </trkpt>
      <trkpt lat="45.69389820098877" lon="7.314105033874512">
        <ele>1648.79833984375</ele>
        <time>2007-06-24T11:27:11Z</time>
      </trkpt>
      <trkpt lat="45.693984031677246" lon="7.313954830169678">
        <ele>1646.875732421875</ele>
        <time>2007-06-24T11:27:15Z</time>
      </trkpt>
      <trkpt lat="45.694112777709961" lon="7.31391191482544">
        <ele>1644.953125</ele>
        <time>2007-06-24T11:27:18Z</time>
      </trkpt>
      <trkpt lat="45.694198608398438" lon="7.313804626464844">
        <ele>1644.953125</ele>
        <time>2007-06-24T11:27:24Z</time>
      </trkpt>
      <trkpt lat="45.694262981414795" lon="7.313740253448486">
        <ele>1637.7431640625</ele>
        <time>2007-06-24T11:27:34Z</time>
      </trkpt>
      <trkpt lat="45.694348812103271" lon="7.313697338104248">
        <ele>1635.820556640625</ele>
        <time>2007-06-24T11:27:38Z</time>
      </trkpt>
      <trkpt lat="45.694434642791748" lon="7.31389045715332">
        <ele>1631.49462890625</ele>
        <time>2007-06-24T11:27:43Z</time>
      </trkpt>
      <trkpt lat="45.694456100463867" lon="7.313997745513916">
        <ele>1630.533447265625</ele>
        <time>2007-06-24T11:27:45Z</time>
      </trkpt>
      <trkpt lat="45.694584846496582" lon="7.314169406890869">
        <ele>1630.052734375</ele>
        <time>2007-06-24T11:27:49Z</time>
      </trkpt>
      <trkpt lat="45.694692134857178" lon="7.314062118530273">
        <ele>1629.572021484375</ele>
        <time>2007-06-24T11:27:52Z</time>
      </trkpt>
      <trkpt lat="45.694820880889893" lon="7.313933372497559">
        <ele>1628.130126953125</ele>
        <time>2007-06-24T11:27:56Z</time>
      </trkpt>
      <trkpt lat="45.695013999938965" lon="7.314019203186035">
        <ele>1624.765380859375</ele>
        <time>2007-06-24T11:28:03Z</time>
      </trkpt>
      <trkpt lat="45.695078372955322" lon="7.314019203186035">
        <ele>1621.400634765625</ele>
        <time>2007-06-24T11:28:08Z</time>
      </trkpt>
      <trkpt lat="45.69514274597168" lon="7.314019203186035">
        <ele>1603.1357421875</ele>
        <time>2007-06-24T11:28:46Z</time>
      </trkpt>
      <trkpt lat="45.695185661315918" lon="7.313997745513916">
        <ele>1600.732421875</ele>
        <time>2007-06-24T11:28:50Z</time>
      </trkpt>
      <trkpt lat="45.695250034332275" lon="7.314083576202393">
        <ele>1600.251953125</ele>
        <time>2007-06-24T11:28:53Z</time>
      </trkpt>
      <trkpt lat="45.695443153381348" lon="7.314255237579346">
        <ele>1598.809814453125</ele>
        <time>2007-06-24T11:28:57Z</time>
      </trkpt>
      <trkpt lat="45.695700645446777" lon="7.31440544128418">
        <ele>1598.3291015625</ele>
        <time>2007-06-24T11:29:02Z</time>
      </trkpt>
      <trkpt lat="45.695829391479492" lon="7.31464147567749">
        <ele>1597.367919921875</ele>
        <time>2007-06-24T11:29:06Z</time>
      </trkpt>
      <trkpt lat="45.696001052856445" lon="7.314705848693848">
        <ele>1596.40673828125</ele>
        <time>2007-06-24T11:29:10Z</time>
      </trkpt>
      <trkpt lat="45.696215629577637" lon="7.314813137054443">
        <ele>1595.445068359375</ele>
        <time>2007-06-24T11:29:15Z</time>
      </trkpt>
      <trkpt lat="45.69638729095459" lon="7.315027713775635">
        <ele>1595.445068359375</ele>
        <time>2007-06-24T11:29:21Z</time>
      </trkpt>
      <trkpt lat="45.696730613708496" lon="7.315521240234375">
        <ele>1595.445068359375</ele>
        <time>2007-06-24T11:29:31Z</time>
      </trkpt>
      <trkpt lat="45.696816444396973" lon="7.31564998626709">
        <ele>1593.041748046875</ele>
        <time>2007-06-24T11:29:36Z</time>
      </trkpt>
      <trkpt lat="45.696837902069092" lon="7.315821647644043">
        <ele>1587.27392578125</ele>
        <time>2007-06-24T11:29:51Z</time>
      </trkpt>
      <trkpt lat="45.696966648101807" lon="7.316079139709473">
        <ele>1586.312744140625</ele>
        <time>2007-06-24T11:29:55Z</time>
      </trkpt>
      <trkpt lat="45.696988105773926" lon="7.316014766693115">
        <ele>1586.312744140625</ele>
        <time>2007-06-24T11:29:59Z</time>
      </trkpt>
      <trkpt lat="45.697031021118164" lon="7.315928936004639">
        <ele>1583.909423828125</ele>
        <time>2007-06-24T11:30:02Z</time>
      </trkpt>
      <trkpt lat="45.697073936462402" lon="7.315864562988281">
        <ele>1580.064208984375</ele>
        <time>2007-06-24T11:30:06Z</time>
      </trkpt>
      <trkpt lat="45.697095394134521" lon="7.315778732299805">
        <ele>1575.25732421875</ele>
        <time>2007-06-24T11:30:10Z</time>
      </trkpt>
      <trkpt lat="45.697116851806641" lon="7.315757274627686">
        <ele>1573.3349609375</ele>
        <time>2007-06-24T11:30:12Z</time>
      </trkpt>
      <trkpt lat="45.697245597839355" lon="7.315778732299805">
        <ele>1566.605712890625</ele>
        <time>2007-06-24T11:30:19Z</time>
      </trkpt>
      <trkpt lat="45.697331428527832" lon="7.315735816955566">
        <ele>1561.799072265625</ele>
        <time>2007-06-24T11:30:23Z</time>
      </trkpt>
      <trkpt lat="45.697588920593262" lon="7.315714359283447">
        <ele>1555.06982421875</ele>
        <time>2007-06-24T11:30:28Z</time>
      </trkpt>
      <trkpt lat="45.697932243347168" lon="7.315778732299805">
        <ele>1547.85986328125</ele>
        <time>2007-06-24T11:30:34Z</time>
      </trkpt>
      <trkpt lat="45.697975158691406" lon="7.315800189971924">
        <ele>1546.8984375</ele>
        <time>2007-06-24T11:30:35Z</time>
      </trkpt>
      <trkpt lat="45.698189735412598" lon="7.315971851348877">
        <ele>1543.05322265625</ele>
        <time>2007-06-24T11:30:40Z</time>
      </trkpt>
      <trkpt lat="45.698404312133789" lon="7.316229343414307">
        <ele>1535.36279296875</ele>
        <time>2007-06-24T11:30:47Z</time>
      </trkpt>
      <trkpt lat="45.698554515838623" lon="7.31614351272583">
        <ele>1527.191650390625</ele>
        <time>2007-06-24T11:30:52Z</time>
      </trkpt>
      <trkpt lat="45.69861888885498" lon="7.316250801086426">
        <ele>1525.74951171875</ele>
        <time>2007-06-24T11:30:54Z</time>
      </trkpt>
      <trkpt lat="45.698747634887695" lon="7.316465377807617">
        <ele>1524.3076171875</ele>
        <time>2007-06-24T11:30:58Z</time>
      </trkpt>
      <trkpt lat="45.698790550231934" lon="7.316615581512451">
        <ele>1523.826904296875</ele>
        <time>2007-06-24T11:31:00Z</time>
      </trkpt>
      <trkpt lat="45.698812007904053" lon="7.316808700561523">
        <ele>1523.826904296875</ele>
        <time>2007-06-24T11:31:02Z</time>
      </trkpt>
      <trkpt lat="45.698854923248291" lon="7.317066192626953">
        <ele>1523.346435546875</ele>
        <time>2007-06-24T11:31:05Z</time>
      </trkpt>
      <trkpt lat="45.698854923248291" lon="7.317988872528076">
        <ele>1523.346435546875</ele>
        <time>2007-06-24T11:31:15Z</time>
      </trkpt>
      <trkpt lat="45.698790550231934" lon="7.318611145019531">
        <ele>1520.943115234375</ele>
        <time>2007-06-24T11:31:22Z</time>
      </trkpt>
      <trkpt lat="45.698812007904053" lon="7.318696975708008">
        <ele>1515.65576171875</ele>
        <time>2007-06-24T11:31:26Z</time>
      </trkpt>
      <trkpt lat="45.698897838592529" lon="7.318611145019531">
        <ele>1512.771728515625</ele>
        <time>2007-06-24T11:31:29Z</time>
      </trkpt>
      <trkpt lat="45.698983669281006" lon="7.318568229675293">
        <ele>1512.291015625</ele>
        <time>2007-06-24T11:31:31Z</time>
      </trkpt>
      <trkpt lat="45.699069499969482" lon="7.318568229675293">
        <ele>1509.8876953125</ele>
        <time>2007-06-24T11:31:34Z</time>
      </trkpt>
      <trkpt lat="45.699069499969482" lon="7.31865406036377">
        <ele>1507.484619140625</ele>
        <time>2007-06-24T11:31:38Z</time>
      </trkpt>
      <trkpt lat="45.699155330657959" lon="7.318761348724365">
        <ele>1507.00390625</ele>
        <time>2007-06-24T11:31:44Z</time>
      </trkpt>
      <trkpt lat="45.699326992034912" lon="7.318589687347412">
        <ele>1504.1201171875</ele>
        <time>2007-06-24T11:31:49Z</time>
      </trkpt>
      <trkpt lat="45.699477195739746" lon="7.318439483642578">
        <ele>1500.75537109375</ele>
        <time>2007-06-24T11:31:53Z</time>
      </trkpt>
      <trkpt lat="45.699563026428223" lon="7.318310737609863">
        <ele>1497.871337890625</ele>
        <time>2007-06-24T11:31:57Z</time>
      </trkpt>
      <trkpt lat="45.699670314788818" lon="7.318418025970459">
        <ele>1496.909912109375</ele>
        <time>2007-06-24T11:32:00Z</time>
      </trkpt>
      <trkpt lat="45.699799060821533" lon="7.318546772003174">
        <ele>1495.94873046875</ele>
        <time>2007-06-24T11:32:04Z</time>
      </trkpt>
      <trkpt lat="45.699906349182129" lon="7.318589687347412">
        <ele>1495.468017578125</ele>
        <time>2007-06-24T11:32:06Z</time>
      </trkpt>
      <trkpt lat="45.700035095214844" lon="7.318482398986816">
        <ele>1495.468017578125</ele>
        <time>2007-06-24T11:32:07Z</time>
      </trkpt>
      <trkpt lat="45.700078010559082" lon="7.318353652954102">
        <ele>1495.468017578125</ele>
        <time>2007-06-24T11:32:10Z</time>
      </trkpt>
      <trkpt lat="45.70012092590332" lon="7.318332195281982">
        <ele>1493.064697265625</ele>
        <time>2007-06-24T11:32:12Z</time>
      </trkpt>
      <trkpt lat="45.700163841247559" lon="7.318482398986816">
        <ele>1492.584228515625</ele>
        <time>2007-06-24T11:32:14Z</time>
      </trkpt>
      <trkpt lat="45.700314044952393" lon="7.318761348724365">
        <ele>1489.7001953125</ele>
        <time>2007-06-24T11:32:20Z</time>
      </trkpt>
      <trkpt lat="45.700442790985107" lon="7.31865406036377">
        <ele>1487.296875</ele>
        <time>2007-06-24T11:32:24Z</time>
      </trkpt>
      <trkpt lat="45.700678825378418" lon="7.318525314331055">
        <ele>1484.4130859375</ele>
        <time>2007-06-24T11:32:28Z</time>
      </trkpt>
      <trkpt lat="45.701215267181396" lon="7.318375110626221">
        <ele>1478.64501953125</ele>
        <time>2007-06-24T11:32:36Z</time>
      </trkpt>
      <trkpt lat="45.701279640197754" lon="7.318332195281982">
        <ele>1472.396484375</ele>
        <time>2007-06-24T11:32:40Z</time>
      </trkpt>
      <trkpt lat="45.701301097869873" lon="7.318332195281982">
        <ele>1381.0712890625</ele>
        <time>2007-06-24T11:32:41Z</time>
      </trkpt>
      <trkpt lat="45.701301097869873" lon="7.318224906921387">
        <ele>1353.673583984375</ele>
        <time>2007-06-24T11:32:45Z</time>
      </trkpt>
      <trkpt lat="45.701258182525635" lon="7.318181991577148">
        <ele>1370.49658203125</ele>
        <time>2007-06-24T11:32:46Z</time>
      </trkpt>
      <trkpt lat="45.70112943649292" lon="7.318074703216553">
        <ele>1373.861328125</ele>
        <time>2007-06-24T11:32:48Z</time>
      </trkpt>
      <trkpt lat="45.70112943649292" lon="7.317924499511719">
        <ele>1378.66796875</ele>
        <time>2007-06-24T11:32:53Z</time>
      </trkpt>
      <trkpt lat="45.701086521148682" lon="7.317881584167481">
        <ele>1379.1484375</ele>
        <time>2007-06-24T11:33:18Z</time>
      </trkpt>
      <trkpt lat="45.701107978820801" lon="7.317752838134766">
        <ele>1378.187255859375</ele>
        <time>2007-06-24T11:33:59Z</time>
      </trkpt>
      <trkpt lat="45.701172351837158" lon="7.317709922790527">
        <ele>1375.783935546875</ele>
        <time>2007-06-24T11:34:01Z</time>
      </trkpt>
      <trkpt lat="45.701429843902588" lon="7.317602634429932">
        <ele>1370.49658203125</ele>
        <time>2007-06-24T11:34:06Z</time>
      </trkpt>
      <trkpt lat="45.701537132263184" lon="7.31764554977417">
        <ele>1369.535400390625</ele>
        <time>2007-06-24T11:34:08Z</time>
      </trkpt>
      <trkpt lat="45.701708793640137" lon="7.317688465118408">
        <ele>1368.09326171875</ele>
        <time>2007-06-24T11:34:11Z</time>
      </trkpt>
      <trkpt lat="45.701858997344971" lon="7.317688465118408">
        <ele>1367.612548828125</ele>
        <time>2007-06-24T11:34:16Z</time>
      </trkpt>
      <trkpt lat="45.701987743377686" lon="7.317581176757813">
        <ele>1365.20947265625</ele>
        <time>2007-06-24T11:34:20Z</time>
      </trkpt>
      <trkpt lat="45.702159404754639" lon="7.317323684692383">
        <ele>1360.40283203125</ele>
        <time>2007-06-24T11:34:25Z</time>
      </trkpt>
      <trkpt lat="45.702245235443115" lon="7.317323684692383">
        <ele>1357.999755859375</ele>
        <time>2007-06-24T11:34:27Z</time>
      </trkpt>
      <trkpt lat="45.702674388885498" lon="7.317280769348145">
        <ele>1350.78955078125</ele>
        <time>2007-06-24T11:34:35Z</time>
      </trkpt>
      <trkpt lat="45.702846050262451" lon="7.317259311676025">
        <ele>1350.30908203125</ele>
        <time>2007-06-24T11:34:38Z</time>
      </trkpt>
      <trkpt lat="45.702996253967285" lon="7.317087650299072">
        <ele>1347.90576171875</ele>
        <time>2007-06-24T11:34:42Z</time>
      </trkpt>
      <trkpt lat="45.703125" lon="7.317023277282715">
        <ele>1344.541015625</ele>
        <time>2007-06-24T11:34:45Z</time>
      </trkpt>
      <trkpt lat="45.703296661376953" lon="7.316915988922119">
        <ele>1341.176513671875</ele>
        <time>2007-06-24T11:34:49Z</time>
      </trkpt>
      <trkpt lat="45.703940391540527" lon="7.316808700561523">
        <ele>1328.679443359375</ele>
        <time>2007-06-24T11:35:00Z</time>
      </trkpt>
      <trkpt lat="45.704176425933838" lon="7.316765785217285">
        <ele>1328.19873046875</ele>
        <time>2007-06-24T11:35:04Z</time>
      </trkpt>
      <trkpt lat="45.70436954498291" lon="7.316701412200928">
        <ele>1321.46923828125</ele>
        <time>2007-06-24T11:35:09Z</time>
      </trkpt>
      <trkpt lat="45.704412460327148" lon="7.316701412200928">
        <ele>1320.02734375</ele>
        <time>2007-06-24T11:35:10Z</time>
      </trkpt>
      <trkpt lat="45.704605579376221" lon="7.316701412200928">
        <ele>1308.972412109375</ele>
        <time>2007-06-24T11:35:18Z</time>
      </trkpt>
      <trkpt lat="45.704669952392578" lon="7.316701412200928">
        <ele>1302.7236328125</ele>
        <time>2007-06-24T11:35:29Z</time>
      </trkpt>
      <trkpt lat="45.704734325408936" lon="7.316701412200928">
        <ele>1301.762451171875</ele>
        <time>2007-06-24T11:35:32Z</time>
      </trkpt>
      <trkpt lat="45.704841613769531" lon="7.316572666168213">
        <ele>1296.955810546875</ele>
        <time>2007-06-24T11:35:38Z</time>
      </trkpt>
      <trkpt lat="45.70488452911377" lon="7.316551208496094">
        <ele>1295.513916015625</ele>
        <time>2007-06-24T11:35:40Z</time>
      </trkpt>
      <trkpt lat="45.705013275146484" lon="7.316529750823975">
        <ele>1292.630126953125</ele>
        <time>2007-06-24T11:35:44Z</time>
      </trkpt>
      <trkpt lat="45.70512056350708" lon="7.316465377807617">
        <ele>1291.187744140625</ele>
        <time>2007-06-24T11:35:46Z</time>
      </trkpt>
      <trkpt lat="45.70537805557251" lon="7.316272258758545">
        <ele>1286.38134765625</ele>
        <time>2007-06-24T11:35:52Z</time>
      </trkpt>
      <trkpt lat="45.705571174621582" lon="7.316057682037354">
        <ele>1285.419921875</ele>
        <time>2007-06-24T11:35:57Z</time>
      </trkpt>
      <trkpt lat="45.705742835998535" lon="7.31590747833252">
        <ele>1283.497314453125</ele>
        <time>2007-06-24T11:36:01Z</time>
      </trkpt>
      <trkpt lat="45.706214904785156" lon="7.315735816955566">
        <ele>1280.613525390625</ele>
        <time>2007-06-24T11:36:11Z</time>
      </trkpt>
      <trkpt lat="45.706536769866943" lon="7.315671443939209">
        <ele>1272.442138671875</ele>
        <time>2007-06-24T11:36:21Z</time>
      </trkpt>
      <trkpt lat="45.70662260055542" lon="7.315585613250732">
        <ele>1265.713134765625</ele>
        <time>2007-06-24T11:36:26Z</time>
      </trkpt>
      <trkpt lat="45.706601142883301" lon="7.315521240234375">
        <ele>1263.309814453125</ele>
        <time>2007-06-24T11:36:28Z</time>
      </trkpt>
      <trkpt lat="45.706579685211182" lon="7.315328121185303">
        <ele>1258.983642578125</ele>
        <time>2007-06-24T11:36:33Z</time>
      </trkpt>
      <trkpt lat="45.706579685211182" lon="7.315328121185303">
        <ele>1257.541748046875</ele>
        <time>2007-06-24T11:36:34Z</time>
      </trkpt>
      <trkpt lat="45.706708431243896" lon="7.315435409545898">
        <ele>1252.25439453125</ele>
        <time>2007-06-24T11:36:43Z</time>
      </trkpt>
      <trkpt lat="45.706837177276611" lon="7.315499782562256">
        <ele>1246.006103515625</ele>
        <time>2007-06-24T11:36:50Z</time>
      </trkpt>
      <trkpt lat="45.706901550292969" lon="7.315585613250732">
        <ele>1244.56396484375</ele>
        <time>2007-06-24T11:36:53Z</time>
      </trkpt>
      <trkpt lat="45.706987380981445" lon="7.315435409545898">
        <ele>1240.718505859375</ele>
        <time>2007-06-24T11:36:58Z</time>
      </trkpt>
      <trkpt lat="45.707008838653564" lon="7.315413951873779">
        <ele>1238.3154296875</ele>
        <time>2007-06-24T11:36:59Z</time>
      </trkpt>
      <trkpt lat="45.70711612701416" lon="7.315306663513184">
        <ele>1235.912109375</ele>
        <time>2007-06-24T11:37:03Z</time>
      </trkpt>
      <trkpt lat="45.707137584686279" lon="7.315349578857422">
        <ele>1233.028076171875</ele>
        <time>2007-06-24T11:37:05Z</time>
      </trkpt>
      <trkpt lat="45.707201957702637" lon="7.315371036529541">
        <ele>1227.74072265625</ele>
        <time>2007-06-24T11:37:09Z</time>
      </trkpt>
      <trkpt lat="45.707223415374756" lon="7.315285205841065">
        <ele>1225.33740234375</ele>
        <time>2007-06-24T11:37:11Z</time>
      </trkpt>
      <trkpt lat="45.707287788391113" lon="7.315349578857422">
        <ele>1219.56982421875</ele>
        <time>2007-06-24T11:37:15Z</time>
      </trkpt>
      <trkpt lat="45.707330703735352" lon="7.315478324890137">
        <ele>1215.243896484375</ele>
        <time>2007-06-24T11:37:18Z</time>
      </trkpt>
      <trkpt lat="45.707395076751709" lon="7.315499782562256">
        <ele>1208.514404296875</ele>
        <time>2007-06-24T11:37:23Z</time>
      </trkpt>
      <trkpt lat="45.707416534423828" lon="7.315242290496826">
        <ele>1202.74658203125</ele>
        <time>2007-06-24T11:37:27Z</time>
      </trkpt>
      <trkpt lat="45.707223415374756" lon="7.315113544464111">
        <ele>1197.940185546875</ele>
        <time>2007-06-24T11:37:32Z</time>
      </trkpt>
      <trkpt lat="45.707030296325684" lon="7.314963340759277">
        <ele>1193.13330078125</ele>
        <time>2007-06-24T11:37:38Z</time>
      </trkpt>
      <trkpt lat="45.707159042358398" lon="7.314920425415039">
        <ele>1191.69140625</ele>
        <time>2007-06-24T11:37:42Z</time>
      </trkpt>
      <trkpt lat="45.707330703735352" lon="7.314834594726563">
        <ele>1190.24951171875</ele>
        <time>2007-06-24T11:37:47Z</time>
      </trkpt>
      <trkpt lat="45.707523822784424" lon="7.314770221710205">
        <ele>1190.24951171875</ele>
        <time>2007-06-24T11:37:52Z</time>
      </trkpt>
      <trkpt lat="45.707845687866211" lon="7.314984798431397">
        <ele>1190.24951171875</ele>
        <time>2007-06-24T11:37:58Z</time>
      </trkpt>
      <trkpt lat="45.707974433898926" lon="7.315006256103516">
        <ele>1189.768798828125</ele>
        <time>2007-06-24T11:38:00Z</time>
      </trkpt>
      <trkpt lat="45.708210468292236" lon="7.314877510070801">
        <ele>1186.884765625</ele>
        <time>2007-06-24T11:38:04Z</time>
      </trkpt>
      <trkpt lat="45.708231925964355" lon="7.314877510070801">
        <ele>1182.55908203125</ele>
        <time>2007-06-24T11:38:07Z</time>
      </trkpt>
      <trkpt lat="45.708296298980713" lon="7.314856052398682">
        <ele>1167.177978515625</ele>
        <time>2007-06-24T11:38:43Z</time>
      </trkpt>
      <trkpt lat="45.708446502685547" lon="7.314770221710205">
        <ele>1164.2939453125</ele>
        <time>2007-06-24T11:38:48Z</time>
      </trkpt>
      <trkpt lat="45.7086181640625" lon="7.314684391021729">
        <ele>1155.64208984375</ele>
        <time>2007-06-24T11:38:56Z</time>
      </trkpt>
      <trkpt lat="45.708768367767334" lon="7.314555644989014">
        <ele>1146.989990234375</ele>
        <time>2007-06-24T11:39:06Z</time>
      </trkpt>
      <trkpt lat="45.708854198455811" lon="7.314491271972656">
        <ele>1144.106201171875</ele>
        <time>2007-06-24T11:39:10Z</time>
      </trkpt>
      <trkpt lat="45.708940029144287" lon="7.314383983612061">
        <ele>1138.819091796875</ele>
        <time>2007-06-24T11:39:18Z</time>
      </trkpt>
      <trkpt lat="45.709004402160645" lon="7.314298152923584">
        <ele>1134.012451171875</ele>
        <time>2007-06-24T11:39:25Z</time>
      </trkpt>
      <trkpt lat="45.709025859832764" lon="7.314298152923584">
        <ele>1133.051025390625</ele>
        <time>2007-06-24T11:39:26Z</time>
      </trkpt>
      <trkpt lat="45.709133148193359" lon="7.314298152923584">
        <ele>1127.283203125</ele>
        <time>2007-06-24T11:39:35Z</time>
      </trkpt>
      <trkpt lat="45.709197521209717" lon="7.314298152923584">
        <ele>1124.8798828125</ele>
        <time>2007-06-24T11:39:40Z</time>
      </trkpt>
      <trkpt lat="45.709240436553955" lon="7.314255237579346">
        <ele>1122.4765625</ele>
        <time>2007-06-24T11:39:43Z</time>
      </trkpt>
      <trkpt lat="45.709261894226074" lon="7.314212322235107">
        <ele>1121.995849609375</ele>
        <time>2007-06-24T11:39:45Z</time>
      </trkpt>
      <trkpt lat="45.709154605865479" lon="7.314105033874512">
        <ele>1119.5927734375</ele>
        <time>2007-06-24T11:39:50Z</time>
      </trkpt>
      <trkpt lat="45.70911169052124" lon="7.314040660858154">
        <ele>1117.669921875</ele>
        <time>2007-06-24T11:39:56Z</time>
      </trkpt>
      <trkpt lat="45.709133148193359" lon="7.313997745513916">
        <ele>1111.902099609375</ele>
        <time>2007-06-24T11:40:38Z</time>
      </trkpt>
      <trkpt lat="45.709347724914551" lon="7.313933372497559">
        <ele>1106.61474609375</ele>
        <time>2007-06-24T11:40:47Z</time>
      </trkpt>
      <trkpt lat="45.70936918258667" lon="7.31391191482544">
        <ele>1106.134033203125</ele>
        <time>2007-06-24T11:40:48Z</time>
      </trkpt>
      <trkpt lat="45.709476470947266" lon="7.313718795776367">
        <ele>1104.692138671875</ele>
        <time>2007-06-24T11:40:51Z</time>
      </trkpt>
      <trkpt lat="45.709948539733887" lon="7.313246726989746">
        <ele>1096.52099609375</ele>
        <time>2007-06-24T11:40:58Z</time>
      </trkpt>
      <trkpt lat="45.710227489471436" lon="7.313075065612793">
        <ele>1092.67578125</ele>
        <time>2007-06-24T11:41:03Z</time>
      </trkpt>
      <trkpt lat="45.710420608520508" lon="7.313032150268555">
        <ele>1084.504638671875</ele>
        <time>2007-06-24T11:41:07Z</time>
      </trkpt>
      <trkpt lat="45.710592269897461" lon="7.312924861907959">
        <ele>1077.294677734375</ele>
        <time>2007-06-24T11:41:11Z</time>
      </trkpt>
      <trkpt lat="45.710721015930176" lon="7.312989234924316">
        <ele>1067.68115234375</ele>
        <time>2007-06-24T11:41:17Z</time>
      </trkpt>
      <trkpt lat="45.710742473602295" lon="7.312967777252197">
        <ele>1066.2392578125</ele>
        <time>2007-06-24T11:41:18Z</time>
      </trkpt>
      <trkpt lat="45.710892677307129" lon="7.312796115875244">
        <ele>1060.9521484375</ele>
        <time>2007-06-24T11:41:23Z</time>
      </trkpt>
      <trkpt lat="45.711042881011963" lon="7.312881946563721">
        <ele>1056.1455078125</ele>
        <time>2007-06-24T11:41:29Z</time>
      </trkpt>
      <trkpt lat="45.711214542388916" lon="7.312774658203125">
        <ele>1055.6650390625</ele>
        <time>2007-06-24T11:41:33Z</time>
      </trkpt>
      <trkpt lat="45.711450576782227" lon="7.312731742858887">
        <ele>1055.184326171875</ele>
        <time>2007-06-24T11:41:37Z</time>
      </trkpt>
      <trkpt lat="45.71162223815918" lon="7.312731742858887">
        <ele>1055.184326171875</ele>
        <time>2007-06-24T11:41:40Z</time>
      </trkpt>
      <trkpt lat="45.711793899536133" lon="7.312989234924316">
        <ele>1054.70361328125</ele>
        <time>2007-06-24T11:41:44Z</time>
      </trkpt>
      <trkpt lat="45.711944103240967" lon="7.313075065612793">
        <ele>987.891845703125</ele>
        <time>2007-06-24T11:41:47Z</time>
      </trkpt>
      <trkpt lat="45.71211576461792" lon="7.313117980957031">
        <ele>987.891845703125</ele>
        <time>2007-06-24T11:41:51Z</time>
      </trkpt>
      <trkpt lat="45.712137222290039" lon="7.31316089630127">
        <ele>992.218017578125</ele>
        <time>2007-06-24T11:41:52Z</time>
      </trkpt>
      <trkpt lat="45.712201595306396" lon="7.313203811645508">
        <ele>980.68212890625</ele>
        <time>2007-06-24T11:41:55Z</time>
      </trkpt>
      <trkpt lat="45.712244510650635" lon="7.31316089630127">
        <ele>982.1240234375</ele>
        <time>2007-06-24T11:41:58Z</time>
      </trkpt>
      <trkpt lat="45.712330341339111" lon="7.313354015350342">
        <ele>978.759521484375</ele>
        <time>2007-06-24T11:42:02Z</time>
      </trkpt>
      <trkpt lat="45.712544918060303" lon="7.313203811645508">
        <ele>977.798095703125</ele>
        <time>2007-06-24T11:42:07Z</time>
      </trkpt>
      <trkpt lat="45.712673664093018" lon="7.313010692596436">
        <ele>977.798095703125</ele>
        <time>2007-06-24T11:42:10Z</time>
      </trkpt>
      <trkpt lat="45.712802410125732" lon="7.312881946563721">
        <ele>977.798095703125</ele>
        <time>2007-06-24T11:42:13Z</time>
      </trkpt>
      <trkpt lat="45.712952613830566" lon="7.312710285186768">
        <ele>976.356201171875</ele>
        <time>2007-06-24T11:42:18Z</time>
      </trkpt>
      <trkpt lat="45.71286678314209" lon="7.312624454498291">
        <ele>975.394775390625</ele>
        <time>2007-06-24T11:42:20Z</time>
      </trkpt>
      <trkpt lat="45.712802410125732" lon="7.312517166137695">
        <ele>974.914306640625</ele>
        <time>2007-06-24T11:42:22Z</time>
      </trkpt>
      <trkpt lat="45.71286678314209" lon="7.312388420104981">
        <ele>974.43359375</ele>
        <time>2007-06-24T11:42:25Z</time>
      </trkpt>
      <trkpt lat="45.713403224945068" lon="7.312173843383789">
        <ele>973.952880859375</ele>
        <time>2007-06-24T11:42:34Z</time>
      </trkpt>
      <trkpt lat="45.713639259338379" lon="7.312281131744385">
        <ele>965.301025390625</ele>
        <time>2007-06-24T11:42:38Z</time>
      </trkpt>
      <trkpt lat="45.713703632354736" lon="7.312431335449219">
        <ele>958.57177734375</ele>
        <time>2007-06-24T11:42:42Z</time>
      </trkpt>
      <trkpt lat="45.71385383605957" lon="7.312688827514648">
        <ele>911.46728515625</ele>
        <time>2007-06-24T11:43:29Z</time>
      </trkpt>
      <trkpt lat="45.713896751403809" lon="7.312710285186768">
        <ele>910.505859375</ele>
        <time>2007-06-24T11:43:30Z</time>
      </trkpt>
      <trkpt lat="45.713982582092285" lon="7.312753200531006">
        <ele>908.102783203125</ele>
        <time>2007-06-24T11:43:32Z</time>
      </trkpt>
      <trkpt lat="45.714154243469238" lon="7.312796115875244">
        <ele>906.1796875</ele>
        <time>2007-06-24T11:43:35Z</time>
      </trkpt>
      <trkpt lat="45.714347362518311" lon="7.31290340423584">
        <ele>903.2958984375</ele>
        <time>2007-06-24T11:43:40Z</time>
      </trkpt>
      <trkpt lat="45.714390277862549" lon="7.312924861907959">
        <ele>902.815185546875</ele>
        <time>2007-06-24T11:43:41Z</time>
      </trkpt>
      <trkpt lat="45.714476108551025" lon="7.313053607940674">
        <ele>901.373291015625</ele>
        <time>2007-06-24T11:43:45Z</time>
      </trkpt>
      <trkpt lat="45.714519023895264" lon="7.313182353973389">
        <ele>901.373291015625</ele>
        <time>2007-06-24T11:43:47Z</time>
      </trkpt>
      <trkpt lat="45.714540481567383" lon="7.313354015350342">
        <ele>901.373291015625</ele>
        <time>2007-06-24T11:43:49Z</time>
      </trkpt>
      <trkpt lat="45.714561939239502" lon="7.313504219055176">
        <ele>900.892578125</ele>
        <time>2007-06-24T11:43:51Z</time>
      </trkpt>
      <trkpt lat="45.71460485458374" lon="7.313675880432129">
        <ele>901.373291015625</ele>
        <time>2007-06-24T11:43:53Z</time>
      </trkpt>
      <trkpt lat="45.714776515960693" lon="7.314276695251465">
        <ele>900.412109375</ele>
        <time>2007-06-24T11:44:01Z</time>
      </trkpt>
      <trkpt lat="45.714883804321289" lon="7.314555644989014">
        <ele>898.969970703125</ele>
        <time>2007-06-24T11:44:05Z</time>
      </trkpt>
      <trkpt lat="45.714969635009766" lon="7.314620018005371">
        <ele>895.124755859375</ele>
        <time>2007-06-24T11:44:10Z</time>
      </trkpt>
      <trkpt lat="45.714991092681885" lon="7.31464147567749">
        <ele>892.7216796875</ele>
        <time>2007-06-24T11:44:13Z</time>
      </trkpt>
      <trkpt lat="45.715055465698242" lon="7.31464147567749">
        <ele>886.953369140625</ele>
        <time>2007-06-24T11:44:18Z</time>
      </trkpt>
      <trkpt lat="45.715270042419434" lon="7.314684391021729">
        <ele>880.705078125</ele>
        <time>2007-06-24T11:44:26Z</time>
      </trkpt>
      <trkpt lat="45.715398788452148" lon="7.314620018005371">
        <ele>877.821044921875</ele>
        <time>2007-06-24T11:44:31Z</time>
      </trkpt>
      <trkpt lat="45.715441703796387" lon="7.314598560333252">
        <ele>876.379150390625</ele>
        <time>2007-06-24T11:44:32Z</time>
      </trkpt>
      <trkpt lat="45.715548992156982" lon="7.314684391021729">
        <ele>873.9755859375</ele>
        <time>2007-06-24T11:44:37Z</time>
      </trkpt>
      <trkpt lat="45.715570449829102" lon="7.314705848693848">
        <ele>872.53369140625</ele>
        <time>2007-06-24T11:44:38Z</time>
      </trkpt>
      <trkpt lat="45.715634822845459" lon="7.314684391021729">
        <ele>867.24658203125</ele>
        <time>2007-06-24T11:44:42Z</time>
      </trkpt>
      <trkpt lat="45.715742111206055" lon="7.314727306365967">
        <ele>862.43994140625</ele>
        <time>2007-06-24T11:44:48Z</time>
      </trkpt>
      <trkpt lat="45.715827941894531" lon="7.314791679382324">
        <ele>857.152587890625</ele>
        <time>2007-06-24T11:44:52Z</time>
      </trkpt>
      <trkpt lat="45.71584939956665" lon="7.314770221710205">
        <ele>854.268798828125</ele>
        <time>2007-06-24T11:44:54Z</time>
      </trkpt>
      <trkpt lat="45.716063976287842" lon="7.314662933349609">
        <ele>843.21337890625</ele>
        <time>2007-06-24T11:45:02Z</time>
      </trkpt>
      <trkpt lat="45.716235637664795" lon="7.31464147567749">
        <ele>834.0810546875</ele>
        <time>2007-06-24T11:45:08Z</time>
      </trkpt>
      <trkpt lat="45.716342926025391" lon="7.314577102661133">
        <ele>825.90966796875</ele>
        <time>2007-06-24T11:45:13Z</time>
      </trkpt>
      <trkpt lat="45.716493129730225" lon="7.314577102661133">
        <ele>819.1806640625</ele>
        <time>2007-06-24T11:45:21Z</time>
      </trkpt>
      <trkpt lat="45.716514587402344" lon="7.314577102661133">
        <ele>817.738525390625</ele>
        <time>2007-06-24T11:45:22Z</time>
      </trkpt>
      <trkpt lat="45.71660041809082" lon="7.314577102661133">
        <ele>812.451416015625</ele>
        <time>2007-06-24T11:45:27Z</time>
      </trkpt>
      <trkpt lat="45.716664791107178" lon="7.314491271972656">
        <ele>809.086669921875</ele>
        <time>2007-06-24T11:45:30Z</time>
      </trkpt>
      <trkpt lat="45.716793537139893" lon="7.314555644989014">
        <ele>803.799560546875</ele>
        <time>2007-06-24T11:45:36Z</time>
      </trkpt>
      <trkpt lat="45.716814994812012" lon="7.314534187316895">
        <ele>799.4736328125</ele>
        <time>2007-06-24T11:45:41Z</time>
      </trkpt>
      <trkpt lat="45.716814994812012" lon="7.314469814300537">
        <ele>793.70556640625</ele>
        <time>2007-06-24T11:45:49Z</time>
      </trkpt>
      <trkpt lat="45.716793537139893" lon="7.314426898956299">
        <ele>793.224853515625</ele>
        <time>2007-06-24T11:45:51Z</time>
      </trkpt>
      <trkpt lat="45.716729164123535" lon="7.314362525939941">
        <ele>789.379638671875</ele>
        <time>2007-06-24T11:45:56Z</time>
      </trkpt>
      <trkpt lat="45.716643333435059" lon="7.314298152923584">
        <ele>780.247314453125</ele>
        <time>2007-06-24T11:46:16Z</time>
      </trkpt>
      <trkpt lat="45.716450214385986" lon="7.314126491546631">
        <ele>779.28564453125</ele>
        <time>2007-06-24T11:46:24Z</time>
      </trkpt>
      <trkpt lat="45.716171264648438" lon="7.313847541809082">
        <ele>779.28564453125</ele>
        <time>2007-06-24T11:46:33Z</time>
      </trkpt>
      <trkpt lat="45.716128349304199" lon="7.313783168792725">
        <ele>779.28564453125</ele>
        <time>2007-06-24T11:46:35Z</time>
      </trkpt>
      <trkpt lat="45.716171264648438" lon="7.313675880432129">
        <ele>779.28564453125</ele>
        <time>2007-06-24T11:46:38Z</time>
      </trkpt>
      <trkpt lat="45.716471672058105" lon="7.31365442276001">
        <ele>779.28564453125</ele>
        <time>2007-06-24T11:46:44Z</time>
      </trkpt>
      <trkpt lat="45.716557502746582" lon="7.31365442276001">
        <ele>779.28564453125</ele>
        <time>2007-06-24T11:46:45Z</time>
      </trkpt>
      <trkpt lat="45.716986656188965" lon="7.313675880432129">
        <ele>779.28564453125</ele>
        <time>2007-06-24T11:46:53Z</time>
      </trkpt>
      <trkpt lat="45.717329978942871" lon="7.31365442276001">
        <ele>779.28564453125</ele>
        <time>2007-06-24T11:47:04Z</time>
      </trkpt>
      <trkpt lat="45.717630386352539" lon="7.313246726989746">
        <ele>779.28564453125</ele>
        <time>2007-06-24T11:47:11Z</time>
      </trkpt>
      <trkpt lat="45.71810245513916" lon="7.313032150268555">
        <ele>779.28564453125</ele>
        <time>2007-06-24T11:47:20Z</time>
      </trkpt>
      <trkpt lat="45.718252658843994" lon="7.312924861907959">
        <ele>779.28564453125</ele>
        <time>2007-06-24T11:47:23Z</time>
      </trkpt>
      <trkpt lat="45.718553066253662" lon="7.312774658203125">
        <ele>779.28564453125</ele>
        <time>2007-06-24T11:47:30Z</time>
      </trkpt>
      <trkpt lat="45.718724727630615" lon="7.312710285186768">
        <ele>778.80517578125</ele>
        <time>2007-06-24T11:47:33Z</time>
      </trkpt>
      <trkpt lat="45.719325542449951" lon="7.312431335449219">
        <ele>777.84375</ele>
        <time>2007-06-24T11:47:46Z</time>
      </trkpt>
      <trkpt lat="45.720999240875244" lon="7.312302589416504">
        <ele>777.36328125</ele>
        <time>2007-06-24T11:47:57Z</time>
      </trkpt>
      <trkpt lat="45.720677375793457" lon="7.312195301055908">
        <ele>776.882568359375</ele>
        <time>2007-06-24T11:48:00Z</time>
      </trkpt>
      <trkpt lat="45.720720291137695" lon="7.311873435974121">
        <ele>776.882568359375</ele>
        <time>2007-06-24T11:48:05Z</time>
      </trkpt>
      <trkpt lat="45.720784664154053" lon="7.311787605285645">
        <ele>662.005126953125</ele>
        <time>2007-06-24T11:48:11Z</time>
      </trkpt>
      <trkpt lat="45.720999240875244" lon="7.311680316925049">
        <ele>661.5244140625</ele>
        <time>2007-06-24T11:48:15Z</time>
      </trkpt>
      <trkpt lat="45.721557140350342" lon="7.311251163482666">
        <ele>647.1044921875</ele>
        <time>2007-06-24T11:48:25Z</time>
      </trkpt>
      <trkpt lat="45.722007751464844" lon="7.310929298400879">
        <ele>640.85595703125</ele>
        <time>2007-06-24T11:48:34Z</time>
      </trkpt>
      <trkpt lat="45.722050666809082" lon="7.310822010040283">
        <ele>639.4140625</ele>
        <time>2007-06-24T11:48:38Z</time>
      </trkpt>
      <trkpt lat="45.722007751464844" lon="7.310671806335449">
        <ele>626.436279296875</ele>
        <time>2007-06-24T11:49:35Z</time>
      </trkpt>
      <trkpt lat="45.722157955169678" lon="7.310435771942139">
        <ele>622.591064453125</ele>
        <time>2007-06-24T11:49:40Z</time>
      </trkpt>
      <trkpt lat="45.722243785858154" lon="7.310564517974854">
        <ele>619.70703125</ele>
        <time>2007-06-24T11:49:44Z</time>
      </trkpt>
      <trkpt lat="45.722286701202393" lon="7.310693264007568">
        <ele>618.74560546875</ele>
        <time>2007-06-24T11:49:46Z</time>
      </trkpt>
      <trkpt lat="45.722479820251465" lon="7.310822010040283">
        <ele>615.86181640625</ele>
        <time>2007-06-24T11:49:50Z</time>
      </trkpt>
      <trkpt lat="45.722544193267822" lon="7.310779094696045">
        <ele>614.900390625</ele>
        <time>2007-06-24T11:49:51Z</time>
      </trkpt>
      <trkpt lat="45.722651481628418" lon="7.310671806335449">
        <ele>612.4970703125</ele>
        <time>2007-06-24T11:49:53Z</time>
      </trkpt>
      <trkpt lat="45.723059177398682" lon="7.310478687286377">
        <ele>607.2099609375</ele>
        <time>2007-06-24T11:49:59Z</time>
      </trkpt>
      <trkpt lat="45.723423957824707" lon="7.310113906860352">
        <ele>600.961181640625</ele>
        <time>2007-06-24T11:50:05Z</time>
      </trkpt>
      <trkpt lat="45.723552703857422" lon="7.310113906860352">
        <ele>599.03857421875</ele>
        <time>2007-06-24T11:50:09Z</time>
      </trkpt>
      <trkpt lat="45.72359561920166" lon="7.310221195220947">
        <ele>599.03857421875</ele>
        <time>2007-06-24T11:50:12Z</time>
      </trkpt>
      <trkpt lat="45.723745822906494" lon="7.310736179351807">
        <ele>598.557861328125</ele>
        <time>2007-06-24T11:50:24Z</time>
      </trkpt>
      <trkpt lat="45.723917484283447" lon="7.311272621154785">
        <ele>596.635498046875</ele>
        <time>2007-06-24T11:50:35Z</time>
      </trkpt>
      <trkpt lat="45.724046230316162" lon="7.311251163482666">
        <ele>595.193359375</ele>
        <time>2007-06-24T11:50:40Z</time>
      </trkpt>
      <trkpt lat="45.724325180053711" lon="7.31114387512207">
        <ele>594.712646484375</ele>
        <time>2007-06-24T11:50:45Z</time>
      </trkpt>
      <trkpt lat="45.724368095397949" lon="7.311122417449951">
        <ele>594.712646484375</ele>
        <time>2007-06-24T11:50:46Z</time>
      </trkpt>
      <trkpt lat="45.724561214447021" lon="7.311079502105713">
        <ele>593.75146484375</ele>
        <time>2007-06-24T11:50:49Z</time>
      </trkpt>
      <trkpt lat="45.724861621856689" lon="7.311122417449951">
        <ele>592.3095703125</ele>
        <time>2007-06-24T11:50:55Z</time>
      </trkpt>
      <trkpt lat="45.725226402282715" lon="7.310993671417236">
        <ele>590.386962890625</ele>
        <time>2007-06-24T11:51:01Z</time>
      </trkpt>
      <trkpt lat="45.725719928741455" lon="7.310800552368164">
        <ele>589.425537109375</ele>
        <time>2007-06-24T11:51:08Z</time>
      </trkpt>
      <trkpt lat="45.725934505462646" lon="7.310714721679688">
        <ele>588.46435546875</ele>
        <time>2007-06-24T11:51:11Z</time>
      </trkpt>
      <trkpt lat="45.726578235626221" lon="7.310371398925781">
        <ele>584.13818359375</ele>
        <time>2007-06-24T11:51:20Z</time>
      </trkpt>
      <trkpt lat="45.726664066314697" lon="7.310328483581543">
        <ele>583.657470703125</ele>
        <time>2007-06-24T11:51:21Z</time>
      </trkpt>
      <trkpt lat="45.72683572769165" lon="7.310435771942139">
        <ele>582.6962890625</ele>
        <time>2007-06-24T11:51:25Z</time>
      </trkpt>
      <trkpt lat="45.72685718536377" lon="7.310607433319092">
        <ele>582.215576171875</ele>
        <time>2007-06-24T11:51:28Z</time>
      </trkpt>
      <trkpt lat="45.726964473724365" lon="7.311229705810547">
        <ele>581.25439453125</ele>
        <time>2007-06-24T11:51:39Z</time>
      </trkpt>
      <trkpt lat="45.727050304412842" lon="7.31189489364624">
        <ele>580.29296875</ele>
        <time>2007-06-24T11:51:51Z</time>
      </trkpt>
      <trkpt lat="45.72709321975708" lon="7.312109470367432">
        <ele>580.29296875</ele>
        <time>2007-06-24T11:51:55Z</time>
      </trkpt>
      <trkpt lat="45.727200508117676" lon="7.312839031219482">
        <ele>579.33154296875</ele>
        <time>2007-06-24T11:52:08Z</time>
      </trkpt>
      <trkpt lat="45.727286338806152" lon="7.313525676727295">
        <ele>577.8896484375</ele>
        <time>2007-06-24T11:52:20Z</time>
      </trkpt>
      <trkpt lat="45.727415084838867" lon="7.314126491546631">
        <ele>577.4091796875</ele>
        <time>2007-06-24T11:52:30Z</time>
      </trkpt>
      <trkpt lat="45.72758674621582" lon="7.314791679382324">
        <ele>575.967041015625</ele>
        <time>2007-06-24T11:52:41Z</time>
      </trkpt>
      <trkpt lat="45.727779865264893" lon="7.315435409545898">
        <ele>575.486328125</ele>
        <time>2007-06-24T11:52:51Z</time>
      </trkpt>
      <trkpt lat="45.727779865264893" lon="7.315499782562256">
        <ele>575.486328125</ele>
        <time>2007-06-24T11:52:52Z</time>
      </trkpt>
      <trkpt lat="45.72784423828125" lon="7.316229343414307">
        <ele>575.486328125</ele>
        <time>2007-06-24T11:53:03Z</time>
      </trkpt>
      <trkpt lat="45.72784423828125" lon="7.316830158233643">
        <ele>576.44775390625</ele>
        <time>2007-06-24T11:53:13Z</time>
      </trkpt>
      <trkpt lat="45.727865695953369" lon="7.317495346069336">
        <ele>577.4091796875</ele>
        <time>2007-06-24T11:53:25Z</time>
      </trkpt>
      <trkpt lat="45.727887153625488" lon="7.318160533905029">
        <ele>577.4091796875</ele>
        <time>2007-06-24T11:53:36Z</time>
      </trkpt>
      <trkpt lat="45.727972984313965" lon="7.318718433380127">
        <ele>576.928466796875</ele>
        <time>2007-06-24T11:53:46Z</time>
      </trkpt>
      <trkpt lat="45.728080272674561" lon="7.319447994232178">
        <ele>575.005859375</ele>
        <time>2007-06-24T11:53:57Z</time>
      </trkpt>
      <trkpt lat="45.728166103363037" lon="7.320177555084229">
        <ele>572.6025390625</ele>
        <time>2007-06-24T11:54:06Z</time>
      </trkpt>
      <trkpt lat="45.728187561035156" lon="7.320821285247803">
        <ele>572.6025390625</ele>
        <time>2007-06-24T11:54:14Z</time>
      </trkpt>
      <trkpt lat="45.728144645690918" lon="7.321336269378662">
        <ele>572.6025390625</ele>
        <time>2007-06-24T11:54:22Z</time>
      </trkpt>
      <trkpt lat="45.72810173034668" lon="7.321615219116211">
        <ele>572.121826171875</ele>
        <time>2007-06-24T11:54:27Z</time>
      </trkpt>
      <trkpt lat="45.728187561035156" lon="7.321937084197998">
        <ele>571.640869140625</ele>
        <time>2007-06-24T11:54:33Z</time>
      </trkpt>
      <trkpt lat="45.728230476379395" lon="7.321979999542236">
        <ele>571.640869140625</ele>
        <time>2007-06-24T11:54:34Z</time>
      </trkpt>
      <trkpt lat="45.728402137756348" lon="7.322258949279785">
        <ele>571.640869140625</ele>
        <time>2007-06-24T11:54:41Z</time>
      </trkpt>
      <trkpt lat="45.728530883789063" lon="7.322194576263428">
        <ele>571.640869140625</ele>
        <time>2007-06-24T11:54:45Z</time>
      </trkpt>
      <trkpt lat="45.728809833526611" lon="7.321937084197998">
        <ele>572.121826171875</ele>
        <time>2007-06-24T11:54:54Z</time>
      </trkpt>
      <trkpt lat="45.729024410247803" lon="7.321872711181641">
        <ele>572.6025390625</ele>
        <time>2007-06-24T11:55:00Z</time>
      </trkpt>
      <trkpt lat="45.729260444641113" lon="7.321915626525879">
        <ele>573.56396484375</ele>
        <time>2007-06-24T11:55:07Z</time>
      </trkpt>
      <trkpt lat="45.729496479034424" lon="7.322001457214356">
        <ele>574.04443359375</ele>
        <time>2007-06-24T11:55:15Z</time>
      </trkpt>
      <trkpt lat="45.729775428771973" lon="7.322044372558594">
        <ele>574.525146484375</ele>
        <time>2007-06-24T11:55:24Z</time>
      </trkpt>
      <trkpt lat="45.730311870574951" lon="7.322108745574951">
        <ele>575.005859375</ele>
        <time>2007-06-24T11:55:38Z</time>
      </trkpt>
      <trkpt lat="45.730805397033691" lon="7.322194576263428">
        <ele>575.005859375</ele>
        <time>2007-06-24T11:55:49Z</time>
      </trkpt>
      <trkpt lat="45.731148719787598" lon="7.322237491607666">
        <ele>575.005859375</ele>
        <time>2007-06-24T11:55:57Z</time>
      </trkpt>
      <trkpt lat="45.731298923492432" lon="7.32215166091919">
        <ele>575.005859375</ele>
        <time>2007-06-24T11:56:01Z</time>
      </trkpt>
      <trkpt lat="45.731384754180908" lon="7.322087287902832">
        <ele>574.525146484375</ele>
        <time>2007-06-24T11:56:03Z</time>
      </trkpt>
      <trkpt lat="45.73157787322998" lon="7.321786880493164">
        <ele>574.525146484375</ele>
        <time>2007-06-24T11:56:09Z</time>
      </trkpt>
      <trkpt lat="45.731878280639648" lon="7.321529388427734">
        <ele>575.486328125</ele>
        <time>2007-06-24T11:56:17Z</time>
      </trkpt>
      <trkpt lat="45.731985569000244" lon="7.32140064239502">
        <ele>575.486328125</ele>
        <time>2007-06-24T11:56:20Z</time>
      </trkpt>
      <trkpt lat="45.73209285736084" lon="7.320992946624756">
        <ele>575.005859375</ele>
        <time>2007-06-24T11:56:27Z</time>
      </trkpt>
      <trkpt lat="45.732157230377197" lon="7.320435047149658">
        <ele>575.005859375</ele>
        <time>2007-06-24T11:56:36Z</time>
      </trkpt>
      <trkpt lat="45.732307434082031" lon="7.320241928100586">
        <ele>575.486328125</ele>
        <time>2007-06-24T11:56:41Z</time>
      </trkpt>
      <trkpt lat="45.732393264770508" lon="7.320113182067871">
        <ele>575.486328125</ele>
        <time>2007-06-24T11:56:45Z</time>
      </trkpt>
      <trkpt lat="45.73235034942627" lon="7.319726943969727">
        <ele>575.005859375</ele>
        <time>2007-06-24T11:56:53Z</time>
      </trkpt>
      <trkpt lat="45.732221603393555" lon="7.319426536560059">
        <ele>575.005859375</ele>
        <time>2007-06-24T11:57:01Z</time>
      </trkpt>
      <trkpt lat="45.732135772705078" lon="7.319211959838867">
        <ele>574.04443359375</ele>
        <time>2007-06-24T11:57:06Z</time>
      </trkpt>
      <trkpt lat="45.732135772705078" lon="7.319169044494629">
        <ele>574.04443359375</ele>
        <time>2007-06-24T11:57:10Z</time>
      </trkpt>
      <trkpt lat="45.732114315032959" lon="7.319169044494629">
        <ele>576.44775390625</ele>
        <time>2007-06-24T11:57:25Z</time>
      </trkpt>
      <trkpt lat="45.732114315032959" lon="7.319126129150391">
        <ele>576.44775390625</ele>
        <time>2007-06-24T11:57:32Z</time>
      </trkpt>
      <trkpt lat="45.732028484344482" lon="7.319104671478272">
        <ele>576.928466796875</ele>
        <time>2007-06-24T11:57:42Z</time>
      </trkpt>
    </trkseg>
  </trk>

</gpx>
